createdAt,value
2019-05-03T00:01:54.859Z,99121.31
2019-05-03T00:05:23.806Z,99121.31
2019-05-03T00:08:29.529Z,99125.01
2019-05-03T00:11:35.268Z,99125.01
2019-05-03T00:14:42.689Z,99129.72
2019-05-03T00:17:48.507Z,99121.13
2019-05-03T00:20:54.317Z,99125.17
2019-05-03T00:24:00.039Z,99118.50
2019-05-03T00:27:05.973Z,99121.77
2019-05-03T00:30:12.115Z,99122.80
2019-05-03T00:33:17.905Z,99122.80
2019-05-03T00:36:32.943Z,99124.13
2019-05-03T00:39:48.614Z,99115.29
2019-05-03T00:42:54.388Z,99118.09
2019-05-03T00:46:01.876Z,99121.38
2019-05-03T00:49:07.519Z,99119.73
2019-05-03T00:52:13.236Z,99113.38
2019-05-03T00:55:19.364Z,99113.30
2019-05-03T00:58:25.228Z,99106.48
2019-05-03T01:01:32.081Z,99113.23
2019-05-03T01:04:38.101Z,99113.18
2019-05-03T01:07:43.806Z,99114.08
2019-05-03T01:10:51.518Z,99121.22
2019-05-03T01:13:57.101Z,99123.63
2019-05-03T01:17:03.769Z,99118.95
2019-05-03T01:20:11.965Z,99112.58
2019-05-03T01:23:17.954Z,99116.30
2019-05-03T01:26:23.620Z,99113.55
2019-05-03T01:29:29.324Z,99115.76
2019-05-03T01:32:35.001Z,99122.41
2019-05-03T01:35:42.661Z,99116.81
2019-05-03T01:38:49.274Z,99123.60
2019-05-03T01:41:55.351Z,99126.52
2019-05-03T01:45:01.797Z,99125.24
2019-05-03T01:48:15.664Z,99124.98
2019-05-03T01:51:41.965Z,99124.81
2019-05-03T01:54:47.774Z,99129.71
2019-05-03T01:57:53.527Z,99135.81
2019-05-03T02:01:17.047Z,99127.66
2019-05-03T02:04:32.178Z,99131.08
2019-05-03T02:07:37.537Z,99132.05
2019-05-03T02:10:43.726Z,99124.80
2019-05-03T02:13:49.711Z,99130.65
2019-05-03T02:16:55.714Z,99132.15
2019-05-03T02:20:02.748Z,99138.55
2019-05-03T02:23:08.541Z,99142.59
2019-05-03T02:26:14.282Z,99141.63
2019-05-03T02:29:21.827Z,99139.64
2019-05-03T02:32:27.453Z,99144.73
2019-05-03T02:35:33.514Z,99145.80
2019-05-03T02:38:39.544Z,99151.62
2019-05-03T02:41:48.452Z,99152.05
2019-05-03T02:44:55.145Z,99160.77
2019-05-03T02:48:06.862Z,99155.64
2019-05-03T02:51:15.436Z,99163.02
2019-05-03T02:54:20.133Z,99162.93
2019-05-03T02:57:26.038Z,99166.47
2019-05-03T03:00:56.234Z,99163.84
2019-05-03T03:04:05.131Z,99165.39
2019-05-03T03:07:11.288Z,99166.90
2019-05-03T03:10:17.417Z,99172.88
2019-05-03T03:13:25.649Z,99174.66
2019-05-03T03:16:36.254Z,99164.75
2019-05-03T03:19:46.130Z,99170.96
2019-05-03T03:22:55.609Z,99172.42
2019-05-03T03:26:06.158Z,99172.42
2019-05-03T03:29:16.154Z,99177.48
2019-05-03T03:32:31.323Z,99178.42
2019-05-03T03:35:38.857Z,99175.75
2019-05-03T03:38:45.867Z,99180.35
2019-05-03T03:41:55.778Z,99186.60
2019-05-03T03:45:06.016Z,99189.73
2019-05-03T03:48:15.797Z,99189.59
2019-05-03T03:51:26.153Z,99193.77
2019-05-03T03:54:35.541Z,99193.72
2019-05-03T03:57:42.250Z,99195.78
2019-05-03T04:00:48.251Z,99194.03
2019-05-03T04:03:56.125Z,99197.95
2019-05-03T04:07:02.016Z,99200.94
2019-05-03T04:10:08.709Z,99203.78
2019-05-03T04:13:15.967Z,99204.33
2019-05-03T04:16:30.810Z,99200.34
2019-05-03T04:19:38.872Z,99204.33
2019-05-03T04:22:45.381Z,99204.33
2019-05-03T04:25:56.733Z,99207.25
2019-05-03T04:29:05.062Z,99206.67
2019-05-03T04:32:10.768Z,99209.77
2019-05-03T04:35:16.728Z,99207.45
2019-05-03T04:38:25.315Z,99207.45
2019-05-03T04:41:30.002Z,99217.64
2019-05-03T04:44:36.151Z,99226.77
2019-05-03T04:47:41.981Z,99230.23
2019-05-03T04:50:47.717Z,99230.04
2019-05-03T04:54:12.292Z,99239.48
2019-05-03T04:57:35.123Z,99244.95
2019-05-03T05:00:26.079Z,99247.09
2019-05-03T05:03:31.949Z,99251.16
2019-05-03T05:06:37.661Z,99252.38
2019-05-03T05:09:45.626Z,99248.25
2019-05-03T05:12:50.773Z,99254.34
2019-05-03T05:15:56.418Z,99254.42
2019-05-03T05:19:06.289Z,99253.98
2019-05-03T05:22:13.087Z,99251.81
2019-05-03T05:25:21.289Z,99258.11
2019-05-03T05:28:37.702Z,99257.45
2019-05-03T05:31:44.644Z,99259.34
2019-05-03T05:34:51.238Z,99261.98
2019-05-03T05:37:56.931Z,99260.59
2019-05-03T05:41:05.175Z,99256.53
2019-05-03T05:44:14.441Z,99248.56
2019-05-03T05:47:37.947Z,99249.42
2019-05-03T05:50:47.742Z,99253.61
2019-05-03T05:54:05.214Z,99239.57
2019-05-03T05:57:27.938Z,99244.13
2019-05-03T06:00:52.572Z,99245.25
2019-05-03T06:04:00.249Z,99245.00
2019-05-03T06:07:35.112Z,99241.36
2019-05-03T06:10:49.820Z,99239.31
2019-05-03T06:14:04.919Z,99242.92
2019-05-03T06:17:32.336Z,99238.58
2019-05-03T06:21:06.687Z,99240.13
2019-05-03T06:24:18.217Z,99237.98
2019-05-03T06:27:29.509Z,99236.03
2019-05-03T06:30:59.588Z,99238.63
2019-05-03T06:34:05.611Z,99237.81
2019-05-03T06:37:14.791Z,99238.30
2019-05-03T06:40:20.760Z,99236.10
2019-05-03T06:43:26.734Z,99241.18
2019-05-03T06:46:46.054Z,99247.45
2019-05-03T06:49:55.116Z,99244.30
2019-05-03T06:53:05.949Z,99234.39
2019-05-03T06:56:07.854Z,99228.27
2019-05-03T06:59:19.463Z,99227.52
2019-05-03T07:02:56.392Z,99230.59
2019-05-03T07:06:36.382Z,99230.67
2019-05-03T07:09:38.667Z,99225.96
2019-05-03T07:13:02.418Z,99226.22
2019-05-03T07:16:10.997Z,99228.96
2019-05-03T07:19:16.723Z,99232.32
2019-05-03T07:22:24.314Z,99230.98
2019-05-03T07:25:29.883Z,99233.41
2019-05-03T07:28:46.222Z,99234.94
2019-05-03T07:31:44.663Z,99233.89
2019-05-03T07:34:50.629Z,99233.98
2019-05-03T07:37:56.388Z,99230.64
2019-05-03T07:41:02.067Z,99223.50
2019-05-03T07:44:08.001Z,99218.09
2019-05-03T07:47:14.856Z,99222.52
2019-05-03T07:50:21.297Z,99219.75
2019-05-03T07:53:27.003Z,99218.91
2019-05-03T07:56:44.586Z,99219.63
2019-05-03T07:59:50.391Z,99220.84
2019-05-03T08:02:56.133Z,99221.39
2019-05-03T08:06:02.033Z,99223.19
2019-05-03T08:09:11.182Z,99218.05
2019-05-03T08:12:16.882Z,99217.83
2019-05-03T08:15:24.545Z,99214.28
2019-05-03T08:18:30.382Z,99212.17
2019-05-03T08:21:38.560Z,99210.84
2019-05-03T08:24:44.856Z,99211.07
2019-05-03T08:27:51.635Z,99211.45
2019-05-03T08:31:15.213Z,99207.57
2019-05-03T08:34:45.306Z,99201.40
2019-05-03T08:37:56.295Z,99202.16
2019-05-03T08:41:05.319Z,99204.06
2019-05-03T08:44:12.071Z,99198.45
2019-05-03T08:47:17.834Z,99199.80
2019-05-03T08:50:25.681Z,99193.02
2019-05-03T08:53:31.757Z,99190.38
2019-05-03T08:56:37.607Z,99180.66
2019-05-03T08:59:44.622Z,99178.30
2019-05-03T09:02:50.784Z,99174.84
2019-05-03T09:05:56.644Z,99173.61
2019-05-03T09:09:04.730Z,99171.34
2019-05-03T09:12:10.973Z,99171.34
2019-05-03T09:15:16.914Z,99173.71
2019-05-03T09:18:22.681Z,99170.75
2019-05-03T09:21:28.442Z,99160.03
2019-05-03T09:24:35.167Z,99157.34
2019-05-03T09:27:41.027Z,99153.58
2019-05-03T09:30:46.875Z,99151.39
2019-05-03T09:33:54.530Z,99156.69
2019-05-03T09:37:00.114Z,99154.50
2019-05-03T09:40:06.242Z,99138.03
2019-05-03T09:43:11.963Z,99134.16
2019-05-03T09:46:17.717Z,99138.35
2019-05-03T09:49:25.313Z,99132.96
2019-05-03T09:52:31.187Z,99131.69
2019-05-03T09:55:40.261Z,99129.58
2019-05-03T09:58:46.284Z,99129.84
2019-05-03T10:01:51.963Z,99126.50
2019-05-03T10:04:57.913Z,99112.19
2019-05-03T10:08:05.172Z,99104.01
2019-05-03T10:11:11.076Z,99098.95
2019-05-03T10:14:16.858Z,99099.64
2019-05-03T10:17:55.471Z,99088.13
2019-05-03T10:21:01.413Z,99082.24
2019-05-03T10:24:07.308Z,99076.47
2019-05-03T10:27:15.095Z,99063.91
2019-05-03T10:30:28.922Z,99060.27
2019-05-03T10:33:47.781Z,99057.27
2019-05-03T10:36:54.839Z,99035.41
2019-05-03T10:40:05.810Z,99025.83
2019-05-03T10:43:11.839Z,99022.08
2019-05-03T10:46:17.626Z,99014.94
2019-05-03T10:49:24.501Z,99010.17
2019-05-03T10:52:35.008Z,99010.11
2019-05-03T10:55:45.086Z,99017.66
2019-05-03T10:59:00.416Z,99006.29
2019-05-03T11:02:12.441Z,99007.16
2019-05-03T11:05:18.201Z,99015.50
2019-05-03T11:08:24.151Z,99007.62
2019-05-03T11:11:29.877Z,99005.66
2019-05-03T11:14:35.557Z,98999.42
2019-05-03T11:17:41.253Z,98997.78
2019-05-03T11:20:46.963Z,98994.89
2019-05-03T11:23:54.522Z,99002.32
2019-05-03T11:27:02.493Z,98998.85
2019-05-03T11:30:09.664Z,98991.95
2019-05-03T11:33:20.396Z,98990.80
2019-05-03T11:36:57.338Z,98986.98
2019-05-03T11:40:05.110Z,98984.36
2019-05-03T11:43:15.125Z,98979.96
2019-05-03T11:46:19.343Z,98986.38
2019-05-03T11:49:25.510Z,98971.19
2019-05-03T11:52:31.519Z,98972.83
2019-05-03T11:55:37.400Z,98971.09
2019-05-03T11:58:45.210Z,98968.80
2019-05-03T12:02:18.312Z,98960.95
2019-05-03T12:05:26.522Z,98956.52
2019-05-03T12:08:34.463Z,98947.84
2019-05-03T12:11:40.610Z,98945.61
2019-05-03T12:14:46.329Z,98943.78
2019-05-03T12:17:58.614Z,98945.30
2019-05-03T12:21:04.026Z,98941.16
2019-05-03T12:24:10.638Z,98933.89
2019-05-03T12:27:16.988Z,98928.15
2019-05-03T12:30:25.516Z,98928.94
2019-05-03T12:33:30.444Z,98928.11
2019-05-03T12:36:39.200Z,98915.50
2019-05-03T12:39:44.723Z,98916.05
2019-05-03T12:42:50.602Z,98913.02
2019-05-03T12:45:56.418Z,98907.06
2019-05-03T12:49:02.178Z,98902.53
2019-05-03T12:52:10.340Z,98902.36
2019-05-03T12:55:16.437Z,98898.23
2019-05-03T12:58:25.390Z,98890.20
2019-05-03T13:01:56.239Z,98882.50
2019-05-03T13:05:02.080Z,98876.86
2019-05-03T13:08:45.346Z,98870.05
2019-05-03T13:11:56.370Z,98867.72
2019-05-03T13:14:59.818Z,98868.77
2019-05-03T13:18:08.047Z,98866.08
2019-05-03T13:21:13.799Z,98859.98
2019-05-03T13:24:23.136Z,98853.21
2019-05-03T13:27:27.052Z,98854.80
2019-05-03T13:30:34.514Z,98847.52
2019-05-03T13:33:40.533Z,98843.73
2019-05-03T13:36:46.249Z,98839.30
2019-05-03T13:39:52.020Z,98840.39
2019-05-03T13:43:03.625Z,98827.41
2019-05-03T13:46:06.855Z,98824.37
2019-05-03T13:49:15.852Z,98825.63
2019-05-03T13:52:25.108Z,98823.27
2019-05-03T13:55:30.851Z,98825.54
2019-05-03T13:58:36.609Z,98822.00
2019-05-03T14:01:42.674Z,98824.03
2019-05-03T14:04:52.379Z,98820.17
2019-05-03T14:07:56.407Z,98822.00
2019-05-03T14:11:02.228Z,98817.66
2019-05-03T14:14:10.551Z,98811.59
2019-05-03T14:17:16.296Z,98812.30
2019-05-03T14:21:04.970Z,98806.91
2019-05-03T14:24:09.775Z,98812.06
2019-05-03T14:27:17.182Z,98804.05
2019-05-03T14:30:25.264Z,98806.84
2019-05-03T14:33:32.898Z,98808.64
2019-05-03T14:36:45.210Z,98804.66
2019-05-03T14:39:52.021Z,98807.51
2019-05-03T14:42:57.770Z,98804.83
2019-05-03T14:46:05.449Z,98803.52
2019-05-03T14:49:11.202Z,98802.48
2019-05-03T14:52:16.931Z,98808.58
2019-05-03T14:55:35.559Z,98800.77
2019-05-03T14:59:09.444Z,98801.03
2019-05-03T15:02:44.537Z,98798.60
2019-05-03T15:05:46.871Z,98803.01
2019-05-03T15:08:54.618Z,98804.55
2019-05-03T15:12:00.280Z,98793.91
2019-05-03T15:15:06.852Z,98789.08
2019-05-03T15:18:14.757Z,98794.66
2019-05-03T15:21:20.076Z,98795.97
2019-05-03T15:24:25.741Z,98787.25
2019-05-03T15:27:31.558Z,98791.54
2019-05-03T15:30:41.633Z,98785.62
2019-05-03T15:33:47.416Z,98789.35
2019-05-03T15:36:54.634Z,98782.36
2019-05-03T15:40:00.715Z,98777.92
2019-05-03T15:43:31.397Z,98786.51
2019-05-03T15:46:54.557Z,98779.58
2019-05-03T15:50:00.331Z,98780.67
2019-05-03T15:53:06.099Z,98781.56
2019-05-03T15:56:11.767Z,98781.48
2019-05-03T15:59:19.806Z,98779.36
2019-05-03T16:02:25.545Z,98774.48
2019-05-03T16:05:31.999Z,98771.02
2019-05-03T16:08:39.170Z,98778.20
2019-05-03T16:11:55.594Z,98775.25
2019-05-03T16:15:01.538Z,98770.15
2019-05-03T16:18:07.223Z,98773.50
2019-05-03T16:21:14.633Z,98768.75
2019-05-03T16:24:20.576Z,98764.81
2019-05-03T16:27:47.190Z,98771.66
2019-05-03T16:30:57.741Z,98767.78
2019-05-03T16:34:04.317Z,98756.96
2019-05-03T16:37:10.882Z,98758.59
2019-05-03T16:40:16.958Z,98753.56
2019-05-03T16:43:25.502Z,98755.07
2019-05-03T16:46:30.818Z,98746.75
2019-05-03T16:49:41.288Z,98754.67
2019-05-03T16:52:47.394Z,98756.66
2019-05-03T16:55:56.385Z,98760.87
2019-05-03T16:59:02.381Z,98762.08
2019-05-03T17:02:08.618Z,98756.12
2019-05-03T17:05:35.126Z,98757.32
2019-05-03T17:09:08.372Z,98759.26
2019-05-03T17:12:21.176Z,98755.73
2019-05-03T17:15:26.886Z,98761.15
2019-05-03T17:18:32.586Z,98754.20
2019-05-03T17:21:38.275Z,98760.63
2019-05-03T17:24:44.448Z,98759.14
2019-05-03T17:27:50.481Z,98762.58
2019-05-03T17:30:56.438Z,98765.04
2019-05-03T17:34:02.249Z,98762.75
2019-05-03T17:37:08.187Z,98758.94
2019-05-03T17:40:44.200Z,98758.02
2019-05-03T17:44:02.714Z,98766.11
2019-05-03T17:47:08.451Z,98763.11
2019-05-03T17:50:14.759Z,98759.12
2019-05-03T17:53:55.173Z,98760.21
2019-05-03T17:57:05.504Z,98769.67
2019-05-03T18:00:30.692Z,98769.62
2019-05-03T18:03:39.102Z,98773.21
2019-05-03T18:06:55.595Z,98771.09
2019-05-03T18:10:02.036Z,98779.89
2019-05-03T18:13:10.551Z,98788.96
2019-05-03T18:16:16.241Z,98789.08
2019-05-03T18:19:21.994Z,98791.04
2019-05-03T18:22:27.732Z,98794.28
2019-05-03T18:25:35.345Z,98801.20
2019-05-03T18:28:42.130Z,98802.38
2019-05-03T18:31:48.063Z,98796.95
2019-05-03T18:34:56.794Z,98802.77
2019-05-03T18:38:02.499Z,98806.23
2019-05-03T18:41:09.607Z,98808.73
2019-05-03T18:44:23.460Z,98809.96
2019-05-03T18:47:30.228Z,98806.20
2019-05-03T18:50:35.872Z,98817.84
2019-05-03T18:53:41.609Z,98815.38
2019-05-03T18:56:47.301Z,98808.00
2019-05-03T18:59:52.999Z,98812.77
2019-05-03T19:03:00.995Z,98815.27
2019-05-03T19:06:08.177Z,98825.71
2019-05-03T19:09:48.271Z,98823.48
2019-05-03T19:13:26.415Z,98829.20
2019-05-03T19:16:42.536Z,98845.56
2019-05-03T19:19:49.691Z,98846.14
2019-05-03T19:22:55.377Z,98852.70
2019-05-03T19:26:01.268Z,98856.91
2019-05-03T19:29:07.167Z,98862.00
2019-05-03T19:32:14.849Z,98866.41
2019-05-03T19:35:27.696Z,98871.19
2019-05-03T19:38:35.165Z,98872.36
2019-05-03T19:41:41.046Z,98882.09
2019-05-03T19:44:46.848Z,98884.23
2019-05-03T19:47:52.646Z,98887.31
2019-05-03T19:50:59.740Z,98888.99
2019-05-03T19:54:05.835Z,98900.12
2019-05-03T19:57:15.110Z,98897.38
2019-05-03T20:00:22.825Z,98903.94
2019-05-03T20:03:50.572Z,98902.82
2019-05-03T20:07:05.356Z,98901.62
2019-05-03T20:10:11.424Z,98903.53
2019-05-03T20:13:17.257Z,98907.66
2019-05-03T20:16:22.952Z,98916.09
2019-05-03T20:19:28.838Z,98911.72
2019-05-03T20:22:35.124Z,98915.98
2019-05-03T20:25:41.225Z,98916.33
2019-05-03T20:28:47.017Z,98925.87
2019-05-03T20:31:52.707Z,98921.41
2019-05-03T20:35:10.723Z,98928.34
2019-05-03T20:38:05.836Z,98928.09
2019-05-03T20:41:11.521Z,98931.20
2019-05-03T20:44:31.916Z,98930.86
2019-05-03T20:47:51.149Z,98931.75
2019-05-03T20:50:57.062Z,98924.77
2019-05-03T20:54:04.677Z,98935.34
2019-05-03T20:57:10.255Z,98934.67
2019-05-03T21:00:19.898Z,98938.49
2019-05-03T21:03:25.609Z,98941.50
2019-05-03T21:06:35.433Z,98942.42
2019-05-03T21:09:38.789Z,98945.07
2019-05-03T21:12:44.471Z,98940.90
2019-05-03T21:16:09.037Z,98939.41
2019-05-03T21:19:44.702Z,98944.80
2019-05-03T21:22:51.094Z,98938.47
2019-05-03T21:26:12.493Z,98932.50
2019-05-03T21:29:15.186Z,98937.38
2019-05-03T21:32:21.352Z,98942.47
2019-05-03T21:35:40.840Z,98955.57
2019-05-03T21:38:35.428Z,98962.33
2019-05-03T21:41:41.416Z,98965.56
2019-05-03T21:44:47.104Z,98964.75
2019-05-03T21:47:58.369Z,98960.91
2019-05-03T21:51:04.456Z,98961.59
2019-05-03T21:54:10.326Z,98962.10
2019-05-03T21:57:16.574Z,98960.70
2019-05-03T22:00:24.453Z,98966.75
2019-05-03T22:03:31.741Z,98967.01
2019-05-03T22:06:37.482Z,98970.08
2019-05-03T22:09:45.173Z,98966.76
2019-05-03T22:12:50.698Z,98966.16
2019-05-03T22:16:01.957Z,98965.83
2019-05-03T22:19:07.645Z,98957.81
2019-05-03T22:22:47.367Z,98966.34
2019-05-03T22:25:54.320Z,98970.27
2019-05-03T22:29:00.742Z,98971.34
2019-05-03T22:32:06.705Z,98969.00
2019-05-03T22:35:12.500Z,98965.47
2019-05-03T22:38:18.246Z,98961.41
2019-05-03T22:41:25.304Z,98951.52
2019-05-03T22:44:31.253Z,98948.13
2019-05-03T22:47:36.956Z,98937.97
2019-05-03T22:50:42.660Z,98944.68
2019-05-03T22:53:48.456Z,98933.02
2019-05-03T22:56:55.458Z,98936.34
2019-05-03T23:00:01.473Z,98940.03
2019-05-03T23:03:08.735Z,98939.64
2019-05-03T23:06:21.971Z,98944.66
2019-05-03T23:09:21.968Z,98945.56
2019-05-03T23:12:27.794Z,98943.56
2019-05-03T23:15:34.796Z,98953.37
2019-05-03T23:18:41.784Z,98960.06
2019-05-03T23:22:06.122Z,98965.64
2019-05-03T23:25:12.073Z,98961.97
2019-05-03T23:28:17.924Z,98960.42
2019-05-03T23:31:25.127Z,98965.19
2019-05-03T23:34:31.174Z,98961.69
2019-05-03T23:37:36.868Z,98958.13
2019-05-03T23:40:44.670Z,98945.26
2019-05-03T23:43:50.032Z,98943.84
2019-05-03T23:47:08.630Z,98949.37
2019-05-03T23:50:17.915Z,98954.23
2019-05-03T23:53:23.604Z,98951.95
2019-05-03T23:56:29.400Z,98953.11
2019-05-03T23:59:35.399Z,98951.72
